sensor_id;sensor_type;location;lat;lon;timestamp;P1;durP1;ratioP1;P2;durP2;ratioP2
50781;SDS011;36749;37.428;-121.972;2023-02-15T00:00:35;8.80;;;1.98;;
50781;SDS011;36749;37.428;-121.972;2023-02-15T00:03:01;9.95;;;2.30;;
50781;SDS011;36749;37.428;-121.972;2023-02-15T00:05:29;7.30;;;2.10;;
50781;SDS011;36749;37.428;-121.972;2023-02-15T00:07:56;10.13;;;2.15;;
50781;SDS011;36749;37.428;-121.972;2023-02-15T00:10:22;16.20;;;2.55;;
50781;SDS011;36749;37.428;-121.972;2023-02-15T00:12:49;11.70;;;2.88;;
50781;SDS011;36749;37.428;-121.972;2023-02-15T00:15:15;21.98;;;3.85;;
50781;SDS011;36749;37.428;-121.972;2023-02-15T00:17:41;16.67;;;3.55;;
50781;SDS011;36749;37.428;-121.972;2023-02-15T00:20:07;25.30;;;3.05;;
50781;SDS011;36749;37.428;-121.972;2023-02-15T00:22:34;15.57;;;3.55;;
50781;SDS011;36749;37.428;-121.972;2023-02-15T00:25:00;19.67;;;3.05;;
50781;SDS011;36749;37.428;-121.972;2023-02-15T00:27:26;25.40;;;3.60;;
50781;SDS011;36749;37.428;-121.972;2023-02-15T00:29:52;19.77;;;4.07;;
50781;SDS011;36749;37.428;-121.972;2023-02-15T00:32:19;18.27;;;3.75;;
50781;SDS011;36749;37.428;-121.972;2023-02-15T00:34:45;29.40;;;3.40;;
50781;SDS011;36749;37.428;-121.972;2023-02-15T00:37:11;20.65;;;2.95;;
50781;SDS011;36749;37.428;-121.972;2023-02-15T00:39:37;16.38;;;2.95;;
50781;SDS011;36749;37.428;-121.972;2023-02-15T00:42:03;20.27;;;3.42;;
50781;SDS011;36749;37.428;-121.972;2023-02-15T00:44:30;18.90;;;3.40;;
50781;SDS011;36749;37.428;-121.972;2023-02-15T00:46:57;14.10;;;2.70;;
50781;SDS011;36749;37.428;-121.972;2023-02-15T00:49:23;15.65;;;2.78;;
50781;SDS011;36749;37.428;-121.972;2023-02-15T00:51:49;16.67;;;3.15;;
50781;SDS011;36749;37.428;-121.972;2023-02-15T00:54:15;16.20;;;3.50;;
50781;SDS011;36749;37.428;-121.972;2023-02-15T00:56:44;18.02;;;2.95;;
50781;SDS011;36749;37.428;-121.972;2023-02-15T00:59:11;13.77;;;2.55;;
50781;SDS011;36749;37.428;-121.972;2023-02-15T01:01:37;18.92;;;3.75;;
50781;SDS011;36749;37.428;-121.972;2023-02-15T01:04:03;17.70;;;3.70;;
50781;SDS011;36749;37.428;-121.972;2023-02-15T01:06:30;13.23;;;3.17;;
50781;SDS011;36749;37.428;-121.972;2023-02-15T01:08:56;24.08;;;4.30;;
50781;SDS011;36749;37.428;-121.972;2023-02-15T01:11:22;20.15;;;3.47;;
50781;SDS011;36749;37.428;-121.972;2023-02-15T01:13:49;19.35;;;3.55;;
50781;SDS011;36749;37.428;-121.972;2023-02-15T01:16:25;20.92;;;3.67;;
50781;SDS011;36749;37.428;-121.972;2023-02-15T01:18:52;22.35;;;3.65;;
50781;SDS011;36749;37.428;-121.972;2023-02-15T01:21:22;20.98;;;3.65;;
50781;SDS011;36749;37.428;-121.972;2023-02-15T01:23:49;19.23;;;3.97;;
50781;SDS011;36749;37.428;-121.972;2023-02-15T01:26:16;18.48;;;4.38;;
50781;SDS011;36749;37.428;-121.972;2023-02-15T01:28:42;31.67;;;4.43;;
50781;SDS011;36749;37.428;-121.972;2023-02-15T01:31:10;18.20;;;4.82;;
50781;SDS011;36749;37.428;-121.972;2023-02-15T01:33:38;19.75;;;3.47;;
50781;SDS011;36749;37.428;-121.972;2023-02-15T01:36:05;16.05;;;2.80;;
50781;SDS011;36749;37.428;-121.972;2023-02-15T01:38:32;16.50;;;3.13;;
50781;SDS011;36749;37.428;-121.972;2023-02-15T01:40:58;16.52;;;3.13;;
50781;SDS011;36749;37.428;-121.972;2023-02-15T01:43:50;15.50;;;3.05;;
50781;SDS011;36749;37.428;-121.972;2023-02-15T01:46:23;18.30;;;4.32;;
50781;SDS011;36749;37.428;-121.972;2023-02-15T01:49:00;9.77;;;1.83;;
50781;SDS011;36749;37.428;-121.972;2023-02-15T01:51:30;3.83;;;1.17;;
50781;SDS011;36749;37.428;-121.972;2023-02-15T01:53:59;10.00;;;1.98;;
50781;SDS011;36749;37.428;-121.972;2023-02-15T01:56:29;4.78;;;1.00;;
50781;SDS011;36749;37.428;-121.972;2023-02-15T01:59:03;6.38;;;3.00;;
50781;SDS011;36749;37.428;-121.972;2023-02-15T02:01:32;8.68;;;1.92;;
50781;SDS011;36749;37.428;-121.972;2023-02-15T02:06:31;7.03;;;1.40;;
50781;SDS011;36749;37.428;-121.972;2023-02-15T02:09:02;5.50;;;2.53;;
50781;SDS011;36749;37.428;-121.972;2023-02-15T02:11:28;6.63;;;2.17;;
50781;SDS011;36749;37.428;-121.972;2023-02-15T02:13:54;9.27;;;2.63;;
50781;SDS011;36749;37.428;-121.972;2023-02-15T02:19:19;8.52;;;2.53;;
50781;SDS011;36749;37.428;-121.972;2023-02-15T02:22:12;16.35;;;2.97;;
50781;SDS011;36749;37.428;-121.972;2023-02-15T02:27:29;17.02;;;3.13;;
50781;SDS011;36749;37.428;-121.972;2023-02-15T02:41:38;14.02;;;2.67;;
50781;SDS011;36749;37.428;-121.972;2023-02-15T02:49:38;19.60;;;3.63;;
50781;SDS011;36749;37.428;-121.972;2023-02-15T02:52:07;12.05;;;2.55;;
50781;SDS011;36749;37.428;-121.972;2023-02-15T02:55:05;15.70;;;3.53;;
50781;SDS011;36749;37.428;-121.972;2023-02-15T02:57:37;11.75;;;2.72;;
50781;SDS011;36749;37.428;-121.972;2023-02-15T03:00:09;10.43;;;2.70;;
50781;SDS011;36749;37.428;-121.972;2023-02-15T03:02:37;12.98;;;2.80;;
50781;SDS011;36749;37.428;-121.972;2023-02-15T03:05:07;8.05;;;1.98;;
50781;SDS011;36749;37.428;-121.972;2023-02-15T03:07:37;11.05;;;2.05;;
50781;SDS011;36749;37.428;-121.972;2023-02-15T03:10:05;5.68;;;1.83;;
50781;SDS011;36749;37.428;-121.972;2023-02-15T03:12:34;5.82;;;2.22;;
50781;SDS011;36749;37.428;-121.972;2023-02-15T03:15:06;11.35;;;2.45;;
50781;SDS011;36749;37.428;-121.972;2023-02-15T03:17:42;12.07;;;2.15;;
50781;SDS011;36749;37.428;-121.972;2023-02-15T03:22:51;6.82;;;1.85;;
50781;SDS011;36749;37.428;-121.972;2023-02-15T03:25:49;4.63;;;2.10;;
50781;SDS011;36749;37.428;-121.972;2023-02-15T03:28:19;8.13;;;2.00;;
50781;SDS011;36749;37.428;-121.972;2023-02-15T03:30:51;3.15;;;1.60;;
50781;SDS011;36749;37.428;-121.972;2023-02-15T03:33:19;5.20;;;1.70;;
50781;SDS011;36749;37.428;-121.972;2023-02-15T03:38:20;3.67;;;1.88;;
50781;SDS011;36749;37.428;-121.972;2023-02-15T03:40:54;3.53;;;1.85;;
50781;SDS011;36749;37.428;-121.972;2023-02-15T03:46:24;6.45;;;2.33;;
50781;SDS011;36749;37.428;-121.972;2023-02-15T03:48:54;5.70;;;2.22;;
50781;SDS011;36749;37.428;-121.972;2023-02-15T03:51:33;7.80;;;2.30;;
50781;SDS011;36749;37.428;-121.972;2023-02-15T03:54:12;3.40;;;1.92;;
50781;SDS011;36749;37.428;-121.972;2023-02-15T03:57:04;6.82;;;1.95;;
50781;SDS011;36749;37.428;-121.972;2023-02-15T03:59:51;4.30;;;1.90;;
50781;SDS011;36749;37.428;-121.972;2023-02-15T04:02:38;5.00;;;1.98;;
50781;SDS011;36749;37.428;-121.972;2023-02-15T04:05:25;5.07;;;1.80;;
50781;SDS011;36749;37.428;-121.972;2023-02-15T04:07:52;4.68;;;1.77;;
50781;SDS011;36749;37.428;-121.972;2023-02-15T04:10:18;3.17;;;1.73;;
50781;SDS011;36749;37.428;-121.972;2023-02-15T04:13:02;3.67;;;1.45;;
50781;SDS011;36749;37.428;-121.972;2023-02-15T04:15:29;3.85;;;1.70;;
50781;SDS011;36749;37.428;-121.972;2023-02-15T04:18:13;2.65;;;1.65;;
50781;SDS011;36749;37.428;-121.972;2023-02-15T04:20:43;2.88;;;1.63;;
50781;SDS011;36749;37.428;-121.972;2023-02-15T04:23:28;4.65;;;2.00;;
50781;SDS011;36749;37.428;-121.972;2023-02-15T04:26:12;3.53;;;1.65;;
50781;SDS011;36749;37.428;-121.972;2023-02-15T04:28:39;4.03;;;1.75;;
50781;SDS011;36749;37.428;-121.972;2023-02-15T04:31:05;3.58;;;1.70;;
50781;SDS011;36749;37.428;-121.972;2023-02-15T04:33:31;3.67;;;1.90;;
50781;SDS011;36749;37.428;-121.972;2023-02-15T04:35:57;2.20;;;1.60;;
50781;SDS011;36749;37.428;-121.972;2023-02-15T04:38:24;3.90;;;1.65;;
50781;SDS011;36749;37.428;-121.972;2023-02-15T04:40:50;4.68;;;1.73;;
50781;SDS011;36749;37.428;-121.972;2023-02-15T04:43:38;6.32;;;2.30;;
50781;SDS011;36749;37.428;-121.972;2023-02-15T04:46:26;7.45;;;2.65;;
50781;SDS011;36749;37.428;-121.972;2023-02-15T04:48:53;7.72;;;3.30;;
50781;SDS011;36749;37.428;-121.972;2023-02-15T04:51:19;9.20;;;3.10;;
50781;SDS011;36749;37.428;-121.972;2023-02-15T04:53:46;9.73;;;3.03;;
50781;SDS011;36749;37.428;-121.972;2023-02-15T04:56:12;7.07;;;2.47;;
50781;SDS011;36749;37.428;-121.972;2023-02-15T04:58:38;7.43;;;2.90;;
50781;SDS011;36749;37.428;-121.972;2023-02-15T05:01:08;8.60;;;2.47;;
50781;SDS011;36749;37.428;-121.972;2023-02-15T05:03:35;7.28;;;2.08;;
50781;SDS011;36749;37.428;-121.972;2023-02-15T05:06:02;10.38;;;2.72;;
50781;SDS011;36749;37.428;-121.972;2023-02-15T05:08:29;7.32;;;2.33;;
50781;SDS011;36749;37.428;-121.972;2023-02-15T05:10:55;7.15;;;2.25;;
50781;SDS011;36749;37.428;-121.972;2023-02-15T05:13:22;8.02;;;2.40;;
50781;SDS011;36749;37.428;-121.972;2023-02-15T05:15:52;8.27;;;2.17;;
50781;SDS011;36749;37.428;-121.972;2023-02-15T05:18:19;8.32;;;2.45;;
50781;SDS011;36749;37.428;-121.972;2023-02-15T05:20:46;8.65;;;2.40;;
50781;SDS011;36749;37.428;-121.972;2023-02-15T05:23:13;5.68;;;1.88;;
50781;SDS011;36749;37.428;-121.972;2023-02-15T05:25:39;8.07;;;2.28;;
50781;SDS011;36749;37.428;-121.972;2023-02-15T05:28:24;6.20;;;1.88;;
50781;SDS011;36749;37.428;-121.972;2023-02-15T05:31:13;3.45;;;1.70;;
50781;SDS011;36749;37.428;-121.972;2023-02-15T05:33:44;6.95;;;2.35;;
50781;SDS011;36749;37.428;-121.972;2023-02-15T05:36:10;6.45;;;2.00;;
50781;SDS011;36749;37.428;-121.972;2023-02-15T05:38:37;7.55;;;1.90;;
50781;SDS011;36749;37.428;-121.972;2023-02-15T05:41:07;5.38;;;2.30;;
50781;SDS011;36749;37.428;-121.972;2023-02-15T05:43:34;6.68;;;1.77;;
50781;SDS011;36749;37.428;-121.972;2023-02-15T05:46:01;5.70;;;1.90;;
50781;SDS011;36749;37.428;-121.972;2023-02-15T05:48:28;7.85;;;2.33;;
50781;SDS011;36749;37.428;-121.972;2023-02-15T05:53:27;17.30;;;2.45;;
50781;SDS011;36749;37.428;-121.972;2023-02-15T05:55:55;6.20;;;2.38;;
50781;SDS011;36749;37.428;-121.972;2023-02-15T05:58:27;8.80;;;2.50;;
50781;SDS011;36749;37.428;-121.972;2023-02-15T06:03:35;7.47;;;2.20;;
50781;SDS011;36749;37.428;-121.972;2023-02-15T06:06:01;5.22;;;1.95;;
50781;SDS011;36749;37.428;-121.972;2023-02-15T06:08:30;6.82;;;2.08;;
50781;SDS011;36749;37.428;-121.972;2023-02-15T06:10:57;7.85;;;2.15;;
50781;SDS011;36749;37.428;-121.972;2023-02-15T06:13:23;9.02;;;3.03;;
50781;SDS011;36749;37.428;-121.972;2023-02-15T06:15:49;6.28;;;2.53;;
50781;SDS011;36749;37.428;-121.972;2023-02-15T06:18:15;10.77;;;2.42;;
50781;SDS011;36749;37.428;-121.972;2023-02-15T06:20:42;9.88;;;2.78;;
50781;SDS011;36749;37.428;-121.972;2023-02-15T06:23:08;6.82;;;1.90;;
50781;SDS011;36749;37.428;-121.972;2023-02-15T06:25:34;6.90;;;2.05;;
50781;SDS011;36749;37.428;-121.972;2023-02-15T06:28:00;12.50;;;2.65;;
50781;SDS011;36749;37.428;-121.972;2023-02-15T06:30:27;4.72;;;1.75;;
50781;SDS011;36749;37.428;-121.972;2023-02-15T06:32:53;3.97;;;1.90;;
50781;SDS011;36749;37.428;-121.972;2023-02-15T06:35:19;5.63;;;1.70;;
50781;SDS011;36749;37.428;-121.972;2023-02-15T06:37:47;5.22;;;1.88;;
50781;SDS011;36749;37.428;-121.972;2023-02-15T06:40:13;4.72;;;1.80;;
50781;SDS011;36749;37.428;-121.972;2023-02-15T06:42:40;8.00;;;2.10;;
50781;SDS011;36749;37.428;-121.972;2023-02-15T06:45:07;2.22;;;1.60;;
50781;SDS011;36749;37.428;-121.972;2023-02-15T06:47:34;5.43;;;1.73;;
50781;SDS011;36749;37.428;-121.972;2023-02-15T06:50:01;3.10;;;1.55;;
50781;SDS011;36749;37.428;-121.972;2023-02-15T06:52:28;4.22;;;1.60;;
50781;SDS011;36749;37.428;-121.972;2023-02-15T06:54:54;4.00;;;1.75;;
50781;SDS011;36749;37.428;-121.972;2023-02-15T06:57:21;5.03;;;2.20;;
50781;SDS011;36749;37.428;-121.972;2023-02-15T06:59:47;3.90;;;1.73;;
50781;SDS011;36749;37.428;-121.972;2023-02-15T07:02:13;3.75;;;1.83;;
50781;SDS011;36749;37.428;-121.972;2023-02-15T07:04:39;4.65;;;2.10;;
50781;SDS011;36749;37.428;-121.972;2023-02-15T07:07:09;3.72;;;1.88;;
50781;SDS011;36749;37.428;-121.972;2023-02-15T07:09:36;7.05;;;2.05;;
50781;SDS011;36749;37.428;-121.972;2023-02-15T07:12:03;5.00;;;1.75;;
50781;SDS011;36749;37.428;-121.972;2023-02-15T07:14:48;6.75;;;2.15;;
50781;SDS011;36749;37.428;-121.972;2023-02-15T07:17:14;6.05;;;2.28;;
50781;SDS011;36749;37.428;-121.972;2023-02-15T07:19:40;4.72;;;2.03;;
50781;SDS011;36749;37.428;-121.972;2023-02-15T07:22:07;3.88;;;1.77;;
50781;SDS011;36749;37.428;-121.972;2023-02-15T07:24:33;6.43;;;2.13;;
50781;SDS011;36749;37.428;-121.972;2023-02-15T07:26:59;5.25;;;2.08;;
50781;SDS011;36749;37.428;-121.972;2023-02-15T07:29:26;3.53;;;1.98;;
50781;SDS011;36749;37.428;-121.972;2023-02-15T07:31:53;5.47;;;2.08;;
50781;SDS011;36749;37.428;-121.972;2023-02-15T07:34:20;4.80;;;2.22;;
50781;SDS011;36749;37.428;-121.972;2023-02-15T07:36:46;4.00;;;1.80;;
50781;SDS011;36749;37.428;-121.972;2023-02-15T07:39:13;5.38;;;2.17;;
50781;SDS011;36749;37.428;-121.972;2023-02-15T07:41:39;4.53;;;2.20;;
50781;SDS011;36749;37.428;-121.972;2023-02-15T07:44:05;4.90;;;1.88;;
50781;SDS011;36749;37.428;-121.972;2023-02-15T07:46:37;3.22;;;1.98;;
50781;SDS011;36749;37.428;-121.972;2023-02-15T07:49:04;3.95;;;2.38;;
50781;SDS011;36749;37.428;-121.972;2023-02-15T07:51:30;4.68;;;2.15;;
50781;SDS011;36749;37.428;-121.972;2023-02-15T07:53:56;3.75;;;1.65;;
50781;SDS011;36749;37.428;-121.972;2023-02-15T07:56:22;5.88;;;1.95;;
50781;SDS011;36749;37.428;-121.972;2023-02-15T07:59:09;7.13;;;2.38;;
50781;SDS011;36749;37.428;-121.972;2023-02-15T08:01:36;4.38;;;1.50;;
50781;SDS011;36749;37.428;-121.972;2023-02-15T08:04:10;2.50;;;1.58;;
50781;SDS011;36749;37.428;-121.972;2023-02-15T08:06:37;3.22;;;1.60;;
50781;SDS011;36749;37.428;-121.972;2023-02-15T08:09:05;2.72;;;1.48;;
50781;SDS011;36749;37.428;-121.972;2023-02-15T08:11:33;3.08;;;1.27;;
50781;SDS011;36749;37.428;-121.972;2023-02-15T08:19:04;1.50;;;1.40;;
50781;SDS011;36749;37.428;-121.972;2023-02-15T08:21:30;1.95;;;1.45;;
50781;SDS011;36749;37.428;-121.972;2023-02-15T08:23:57;3.47;;;1.13;;
50781;SDS011;36749;37.428;-121.972;2023-02-15T08:26:24;4.75;;;1.52;;
50781;SDS011;36749;37.428;-121.972;2023-02-15T08:28:52;1.70;;;1.10;;
50781;SDS011;36749;37.428;-121.972;2023-02-15T08:31:19;2.35;;;1.63;;
50781;SDS011;36749;37.428;-121.972;2023-02-15T08:33:46;1.48;;;1.25;;
50781;SDS011;36749;37.428;-121.972;2023-02-15T08:36:14;2.63;;;1.30;;
50781;SDS011;36749;37.428;-121.972;2023-02-15T08:38:42;1.30;;;1.20;;
50781;SDS011;36749;37.428;-121.972;2023-02-15T08:43:52;5.35;;;1.55;;
50781;SDS011;36749;37.428;-121.972;2023-02-15T08:46:20;4.07;;;1.77;;
50781;SDS011;36749;37.428;-121.972;2023-02-15T08:48:47;2.28;;;1.30;;
50781;SDS011;36749;37.428;-121.972;2023-02-15T08:51:14;1.52;;;1.27;;
50781;SDS011;36749;37.428;-121.972;2023-02-15T08:53:43;1.70;;;1.15;;
50781;SDS011;36749;37.428;-121.972;2023-02-15T08:56:11;1.38;;;1.20;;
50781;SDS011;36749;37.428;-121.972;2023-02-15T08:58:38;3.22;;;1.40;;
50781;SDS011;36749;37.428;-121.972;2023-02-15T09:01:11;2.75;;;1.70;;
50781;SDS011;36749;37.428;-121.972;2023-02-15T09:06:05;2.80;;;1.40;;
50781;SDS011;36749;37.428;-121.972;2023-02-15T09:08:31;3.70;;;1.45;;
50781;SDS011;36749;37.428;-121.972;2023-02-15T09:11:08;3.50;;;1.30;;
50781;SDS011;36749;37.428;-121.972;2023-02-15T09:13:42;2.25;;;1.35;;
50781;SDS011;36749;37.428;-121.972;2023-02-15T09:16:09;2.00;;;1.10;;
50781;SDS011;36749;37.428;-121.972;2023-02-15T09:18:37;2.47;;;1.33;;
50781;SDS011;36749;37.428;-121.972;2023-02-15T09:21:08;1.35;;;1.02;;
50781;SDS011;36749;37.428;-121.972;2023-02-15T09:23:36;2.42;;;1.23;;
50781;SDS011;36749;37.428;-121.972;2023-02-15T09:26:06;2.80;;;1.40;;
50781;SDS011;36749;37.428;-121.972;2023-02-15T09:33:35;1.10;;;1.00;;
50781;SDS011;36749;37.428;-121.972;2023-02-15T09:36:03;1.40;;;1.02;;
50781;SDS011;36749;37.428;-121.972;2023-02-15T09:38:30;2.83;;;1.33;;
50781;SDS011;36749;37.428;-121.972;2023-02-15T09:44:32;1.52;;;1.17;;
50781;SDS011;36749;37.428;-121.972;2023-02-15T09:46:57;0.95;;;0.90;;
50781;SDS011;36749;37.428;-121.972;2023-02-15T09:54:56;2.05;;;0.80;;
50781;SDS011;36749;37.428;-121.972;2023-02-15T09:57:36;0.98;;;0.95;;
50781;SDS011;36749;37.428;-121.972;2023-02-15T10:08:29;0.80;;;0.80;;
50781;SDS011;36749;37.428;-121.972;2023-02-15T10:11:20;1.30;;;1.00;;
50781;SDS011;36749;37.428;-121.972;2023-02-15T10:14:16;1.15;;;0.88;;
50781;SDS011;36749;37.428;-121.972;2023-02-15T10:17:02;0.85;;;0.80;;
50781;SDS011;36749;37.428;-121.972;2023-02-15T10:19:58;1.38;;;1.27;;
50781;SDS011;36749;37.428;-121.972;2023-02-15T10:22:47;1.60;;;1.05;;
50781;SDS011;36749;37.428;-121.972;2023-02-15T10:28:06;2.33;;;1.30;;
50781;SDS011;36749;37.428;-121.972;2023-02-15T10:30:48;2.83;;;1.02;;
50781;SDS011;36749;37.428;-121.972;2023-02-15T10:51:58;1.38;;;1.27;;
50781;SDS011;36749;37.428;-121.972;2023-02-15T11:00:28;3.08;;;1.33;;
50781;SDS011;36749;37.428;-121.972;2023-02-15T11:03:01;1.75;;;1.20;;
50781;SDS011;36749;37.428;-121.972;2023-02-15T11:08:16;2.33;;;0.90;;
50781;SDS011;36749;37.428;-121.972;2023-02-15T11:10:51;1.55;;;1.20;;
50781;SDS011;36749;37.428;-121.972;2023-02-15T11:13:34;3.25;;;1.00;;
50781;SDS011;36749;37.428;-121.972;2023-02-15T11:16:20;1.15;;;0.90;;
50781;SDS011;36749;37.428;-121.972;2023-02-15T11:21:47;2.40;;;1.40;;
50781;SDS011;36749;37.428;-121.972;2023-02-15T11:24:18;0.80;;;0.80;;
50781;SDS011;36749;37.428;-121.972;2023-02-15T11:26:47;1.67;;;1.23;;
50781;SDS011;36749;37.428;-121.972;2023-02-15T11:29:18;0.90;;;0.90;;
50781;SDS011;36749;37.428;-121.972;2023-02-15T11:31:48;1.40;;;1.30;;
50781;SDS011;36749;37.428;-121.972;2023-02-15T11:36:52;1.85;;;1.10;;
50781;SDS011;36749;37.428;-121.972;2023-02-15T11:39:20;0.95;;;0.82;;
50781;SDS011;36749;37.428;-121.972;2023-02-15T11:41:53;1.00;;;1.00;;
50781;SDS011;36749;37.428;-121.972;2023-02-15T11:44:32;0.80;;;0.80;;
50781;SDS011;36749;37.428;-121.972;2023-02-15T11:47:01;1.10;;;0.85;;
50781;SDS011;36749;37.428;-121.972;2023-02-15T11:49:31;0.80;;;0.80;;
50781;SDS011;36749;37.428;-121.972;2023-02-15T11:52:00;1.20;;;1.10;;
50781;SDS011;36749;37.428;-121.972;2023-02-15T11:54:37;0.95;;;0.82;;
50781;SDS011;36749;37.428;-121.972;2023-02-15T12:00:03;1.52;;;1.00;;
50781;SDS011;36749;37.428;-121.972;2023-02-15T12:02:37;3.95;;;1.00;;
50781;SDS011;36749;37.428;-121.972;2023-02-15T12:05:17;1.33;;;0.90;;
50781;SDS011;36749;37.428;-121.972;2023-02-15T12:07:57;1.00;;;0.80;;
50781;SDS011;36749;37.428;-121.972;2023-02-15T12:10:36;2.40;;;0.90;;
50781;SDS011;36749;37.428;-121.972;2023-02-15T12:15:43;2.30;;;1.00;;
50781;SDS011;36749;37.428;-121.972;2023-02-15T12:18:24;0.90;;;0.90;;
50781;SDS011;36749;37.428;-121.972;2023-02-15T12:20:53;1.17;;;1.08;;
50781;SDS011;36749;37.428;-121.972;2023-02-15T12:23:25;1.20;;;1.10;;
50781;SDS011;36749;37.428;-121.972;2023-02-15T12:25:54;1.38;;;1.15;;
50781;SDS011;36749;37.428;-121.972;2023-02-15T12:28:34;0.82;;;0.80;;
50781;SDS011;36749;37.428;-121.972;2023-02-15T12:31:02;1.45;;;1.15;;
50781;SDS011;36749;37.428;-121.972;2023-02-15T12:33:41;1.85;;;1.20;;
50781;SDS011;36749;37.428;-121.972;2023-02-15T12:44:23;1.35;;;1.10;;
50781;SDS011;36749;37.428;-121.972;2023-02-15T12:49:44;0.93;;;0.75;;
50781;SDS011;36749;37.428;-121.972;2023-02-15T12:54:46;1.83;;;0.93;;
50781;SDS011;36749;37.428;-121.972;2023-02-15T13:02:34;0.88;;;0.80;;
50781;SDS011;36749;37.428;-121.972;2023-02-15T13:05:38;1.20;;;0.95;;
50781;SDS011;36749;37.428;-121.972;2023-02-15T13:08:10;0.85;;;0.80;;
50781;SDS011;36749;37.428;-121.972;2023-02-15T13:10:40;2.33;;;1.00;;
50781;SDS011;36749;37.428;-121.972;2023-02-15T13:13:19;0.95;;;0.70;;
50781;SDS011;36749;37.428;-121.972;2023-02-15T13:15:48;0.90;;;0.65;;
50781;SDS011;36749;37.428;-121.972;2023-02-15T13:18:18;1.60;;;0.90;;
50781;SDS011;36749;37.428;-121.972;2023-02-15T13:20:54;0.80;;;0.80;;
50781;SDS011;36749;37.428;-121.972;2023-02-15T13:25:50;1.88;;;1.08;;
50781;SDS011;36749;37.428;-121.972;2023-02-15T13:28:18;2.70;;;0.75;;
50781;SDS011;36749;37.428;-121.972;2023-02-15T13:30:47;0.88;;;0.88;;
50781;SDS011;36749;37.428;-121.972;2023-02-15T13:35:57;6.32;;;0.90;;
50781;SDS011;36749;37.428;-121.972;2023-02-15T13:38:41;1.85;;;0.70;;
50781;SDS011;36749;37.428;-121.972;2023-02-15T13:41:20;0.75;;;0.75;;
50781;SDS011;36749;37.428;-121.972;2023-02-15T13:44:11;1.48;;;0.70;;
50781;SDS011;36749;37.428;-121.972;2023-02-15T13:46:59;1.33;;;1.13;;
50781;SDS011;36749;37.428;-121.972;2023-02-15T13:49:51;1.00;;;0.70;;
50781;SDS011;36749;37.428;-121.972;2023-02-15T13:52:26;1.08;;;0.60;;
50781;SDS011;36749;37.428;-121.972;2023-02-15T14:05:25;2.05;;;0.70;;
50781;SDS011;36749;37.428;-121.972;2023-02-15T14:10:38;2.05;;;1.00;;
50781;SDS011;36749;37.428;-121.972;2023-02-15T14:13:23;5.35;;;1.08;;
50781;SDS011;36749;37.428;-121.972;2023-02-15T14:21:31;10.48;;;2.00;;
50781;SDS011;36749;37.428;-121.972;2023-02-15T14:29:25;6.32;;;1.45;;
50781;SDS011;36749;37.428;-121.972;2023-02-15T14:31:57;4.40;;;1.35;;
50781;SDS011;36749;37.428;-121.972;2023-02-15T14:34:37;5.00;;;0.90;;
50781;SDS011;36749;37.428;-121.972;2023-02-15T14:37:10;3.05;;;1.10;;
50781;SDS011;36749;37.428;-121.972;2023-02-15T14:39:49;1.17;;;1.02;;
50781;SDS011;36749;37.428;-121.972;2023-02-15T14:43:00;1.65;;;1.00;;
50781;SDS011;36749;37.428;-121.972;2023-02-15T14:45:31;2.50;;;1.02;;
50781;SDS011;36749;37.428;-121.972;2023-02-15T14:48:25;4.10;;;1.30;;
50781;SDS011;36749;37.428;-121.972;2023-02-15T14:50:56;2.67;;;1.08;;
50781;SDS011;36749;37.428;-121.972;2023-02-15T14:59:00;2.28;;;1.17;;
50781;SDS011;36749;37.428;-121.972;2023-02-15T15:01:30;4.97;;;1.40;;
50781;SDS011;36749;37.428;-121.972;2023-02-15T15:03:59;5.30;;;1.73;;
50781;SDS011;36749;37.428;-121.972;2023-02-15T15:06:32;2.30;;;2.10;;
50781;SDS011;36749;37.428;-121.972;2023-02-15T15:09:00;5.00;;;1.95;;
50781;SDS011;36749;37.428;-121.972;2023-02-15T15:11:48;5.60;;;1.60;;
50781;SDS011;36749;37.428;-121.972;2023-02-15T15:16:58;6.72;;;1.85;;
50781;SDS011;36749;37.428;-121.972;2023-02-15T15:22:26;8.32;;;2.25;;
50781;SDS011;36749;37.428;-121.972;2023-02-15T15:25:00;4.30;;;1.73;;
50781;SDS011;36749;37.428;-121.972;2023-02-15T15:41:42;3.22;;;1.02;;
50781;SDS011;36749;37.428;-121.972;2023-02-15T15:47:08;4.68;;;1.10;;
50781;SDS011;36749;37.428;-121.972;2023-02-15T15:49:57;0.70;;;0.70;;
50781;SDS011;36749;37.428;-121.972;2023-02-15T15:52:24;2.05;;;0.80;;
50781;SDS011;36749;37.428;-121.972;2023-02-15T15:54:53;0.90;;;0.90;;
50781;SDS011;36749;37.428;-121.972;2023-02-15T15:57:33;1.75;;;0.90;;
50781;SDS011;36749;37.428;-121.972;2023-02-15T16:00:01;2.10;;;0.90;;
50781;SDS011;36749;37.428;-121.972;2023-02-15T16:02:29;0.60;;;0.60;;
50781;SDS011;36749;37.428;-121.972;2023-02-15T16:05:05;8.07;;;1.50;;
50781;SDS011;36749;37.428;-121.972;2023-02-15T16:07:32;3.67;;;0.80;;
50781;SDS011;36749;37.428;-121.972;2023-02-15T16:10:00;2.20;;;1.17;;
50781;SDS011;36749;37.428;-121.972;2023-02-15T16:12:29;7.82;;;1.20;;
50781;SDS011;36749;37.428;-121.972;2023-02-15T16:14:56;1.98;;;1.08;;
50781;SDS011;36749;37.428;-121.972;2023-02-15T16:17:27;3.13;;;1.08;;
50781;SDS011;36749;37.428;-121.972;2023-02-15T16:22:51;1.20;;;1.10;;
50781;SDS011;36749;37.428;-121.972;2023-02-15T16:28:10;4.55;;;2.47;;
50781;SDS011;36749;37.428;-121.972;2023-02-15T16:30:37;1.60;;;0.80;;
50781;SDS011;36749;37.428;-121.972;2023-02-15T16:33:07;3.50;;;1.50;;
50781;SDS011;36749;37.428;-121.972;2023-02-15T16:35:54;2.90;;;1.08;;
50781;SDS011;36749;37.428;-121.972;2023-02-15T16:41:00;1.40;;;1.17;;
50781;SDS011;36749;37.428;-121.972;2023-02-15T16:43:28;1.50;;;1.00;;
50781;SDS011;36749;37.428;-121.972;2023-02-15T16:46:05;0.60;;;0.60;;
50781;SDS011;36749;37.428;-121.972;2023-02-15T16:48:34;1.85;;;0.85;;
50781;SDS011;36749;37.428;-121.972;2023-02-15T16:51:05;2.33;;;0.73;;
50781;SDS011;36749;37.428;-121.972;2023-02-15T16:53:31;1.73;;;1.05;;
50781;SDS011;36749;37.428;-121.972;2023-02-15T16:55:58;2.17;;;0.80;;
50781;SDS011;36749;37.428;-121.972;2023-02-15T17:01:03;3.22;;;1.30;;
50781;SDS011;36749;37.428;-121.972;2023-02-15T17:03:32;12.38;;;1.85;;
50781;SDS011;36749;37.428;-121.972;2023-02-15T17:05:59;5.82;;;1.23;;
50781;SDS011;36749;37.428;-121.972;2023-02-15T17:13:26;24.42;;;2.97;;
50781;SDS011;36749;37.428;-121.972;2023-02-15T17:18:29;2.58;;;1.00;;
50781;SDS011;36749;37.428;-121.972;2023-02-15T17:21:08;3.28;;;0.95;;
50781;SDS011;36749;37.428;-121.972;2023-02-15T17:23:44;2.08;;;0.70;;
50781;SDS011;36749;37.428;-121.972;2023-02-15T17:28:50;0.75;;;0.75;;
50781;SDS011;36749;37.428;-121.972;2023-02-15T17:33:45;0.68;;;0.68;;
50781;SDS011;36749;37.428;-121.972;2023-02-15T17:36:19;1.23;;;0.90;;
50781;SDS011;36749;37.428;-121.972;2023-02-15T17:41:23;2.72;;;0.80;;
50781;SDS011;36749;37.428;-121.972;2023-02-15T17:43:50;2.20;;;0.93;;
50781;SDS011;36749;37.428;-121.972;2023-02-15T17:46:16;0.70;;;0.60;;
50781;SDS011;36749;37.428;-121.972;2023-02-15T17:48:49;1.10;;;0.73;;
50781;SDS011;36749;37.428;-121.972;2023-02-15T17:51:17;2.20;;;1.27;;
50781;SDS011;36749;37.428;-121.972;2023-02-15T17:53:44;0.63;;;0.63;;
50781;SDS011;36749;37.428;-121.972;2023-02-15T17:56:34;5.60;;;1.27;;
50781;SDS011;36749;37.428;-121.972;2023-02-15T17:59:01;0.95;;;0.90;;
50781;SDS011;36749;37.428;-121.972;2023-02-15T18:01:32;1.65;;;1.20;;
50781;SDS011;36749;37.428;-121.972;2023-02-15T18:04:17;1.30;;;0.82;;